sensor_id;sensor_type;location;lat;lon;timestamp;pressure;altitude;pressure_sealevel;temperature;humidity
78383;BME280;67668;52.294;4.692;2023-05-18T00:04:33;102992.34;;;12.23;54.60
78383;BME280;67668;52.294;4.692;2023-05-18T00:06:59;102991.56;;;12.21;54.46
78383;BME280;67668;52.294;4.692;2023-05-18T00:09:33;102987.41;;;12.17;54.67
78383;BME280;67668;52.294;4.692;2023-05-18T00:12:00;102987.53;;;12.15;54.92
78383;BME280;67668;52.294;4.692;2023-05-18T00:14:26;102990.38;;;12.12;55.07
78383;BME280;67668;52.294;4.692;2023-05-18T00:16:52;102986.09;;;12.10;55.13
78383;BME280;67668;52.294;4.692;2023-05-18T00:19:18;102988.00;;;12.08;55.39
78383;BME280;67668;52.294;4.692;2023-05-18T00:21:46;102987.34;;;12.04;55.58
78383;BME280;67668;52.294;4.692;2023-05-18T00:24:13;102991.91;;;12.02;55.34
78383;BME280;67668;52.294;4.692;2023-05-18T00:26:43;102988.50;;;12.00;55.75
78383;BME280;67668;52.294;4.692;2023-05-18T00:29:09;102994.00;;;11.97;55.76
78383;BME280;67668;52.294;4.692;2023-05-18T00:31:35;102998.56;;;11.95;55.87
78383;BME280;67668;52.294;4.692;2023-05-18T00:34:13;102990.88;;;11.90;56.15
78383;BME280;67668;52.294;4.692;2023-05-18T00:36:39;102985.69;;;11.89;56.09
78383;BME280;67668;52.294;4.692;2023-05-18T00:39:06;102985.91;;;11.86;55.93
78383;BME280;67668;52.294;4.692;2023-05-18T00:41:32;102984.25;;;11.83;56.17
78383;BME280;67668;52.294;4.692;2023-05-18T00:43:58;102994.13;;;11.81;56.25
78383;BME280;67668;52.294;4.692;2023-05-18T00:46:25;102987.22;;;11.79;56.33
78383;BME280;67668;52.294;4.692;2023-05-18T00:48:51;102995.25;;;11.77;56.54
78383;BME280;67668;52.294;4.692;2023-05-18T00:51:18;102988.44;;;11.73;56.73
78383;BME280;67668;52.294;4.692;2023-05-18T00:53:45;102986.75;;;11.72;56.86
78383;BME280;67668;52.294;4.692;2023-05-18T00:56:11;102994.88;;;11.69;56.72
78383;BME280;67668;52.294;4.692;2023-05-18T00:58:40;102994.97;;;11.68;56.85
78383;BME280;67668;52.294;4.692;2023-05-18T01:01:06;103003.97;;;11.65;57.47
78383;BME280;67668;52.294;4.692;2023-05-18T01:03:36;103000.47;;;11.65;57.22
78383;BME280;67668;52.294;4.692;2023-05-18T01:06:07;102997.25;;;11.60;57.41
78383;BME280;67668;52.294;4.692;2023-05-18T01:08:34;102996.41;;;11.59;57.35
78383;BME280;67668;52.294;4.692;2023-05-18T01:11:20;102995.63;;;11.57;57.87
78383;BME280;67668;52.294;4.692;2023-05-18T01:14:05;103001.25;;;11.53;57.94
78383;BME280;67668;52.294;4.692;2023-05-18T01:16:40;103001.31;;;11.51;57.81
78383;BME280;67668;52.294;4.692;2023-05-18T01:19:35;103007.66;;;11.49;57.73
78383;BME280;67668;52.294;4.692;2023-05-18T01:25:24;103001.78;;;11.43;58.11
78383;BME280;67668;52.294;4.692;2023-05-18T01:27:54;102991.38;;;11.40;58.32
78383;BME280;67668;52.294;4.692;2023-05-18T01:30:21;103008.25;;;11.39;58.58
78383;BME280;67668;52.294;4.692;2023-05-18T01:32:47;103003.03;;;11.38;58.55
78383;BME280;67668;52.294;4.692;2023-05-18T01:35:12;103006.72;;;11.35;58.78
78383;BME280;67668;52.294;4.692;2023-05-18T01:37:39;103000.56;;;11.35;58.71
78383;BME280;67668;52.294;4.692;2023-05-18T01:40:06;103002.47;;;11.33;58.86
78383;BME280;67668;52.294;4.692;2023-05-18T01:42:40;103000.00;;;11.30;58.94
78383;BME280;67668;52.294;4.692;2023-05-18T01:45:14;102998.28;;;11.29;59.13
78383;BME280;67668;52.294;4.692;2023-05-18T01:47:43;103007.19;;;11.28;59.15
78383;BME280;67668;52.294;4.692;2023-05-18T01:50:14;103004.63;;;11.26;58.84
78383;BME280;67668;52.294;4.692;2023-05-18T01:52:45;103006.50;;;11.24;58.71
78383;BME280;67668;52.294;4.692;2023-05-18T01:55:14;102995.16;;;11.22;58.42
78383;BME280;67668;52.294;4.692;2023-05-18T01:57:43;103000.66;;;11.19;58.31
78383;BME280;67668;52.294;4.692;2023-05-18T02:00:10;103002.44;;;11.19;58.43
78383;BME280;67668;52.294;4.692;2023-05-18T02:02:36;103006.03;;;11.18;58.40
78383;BME280;67668;52.294;4.692;2023-05-18T02:05:01;103000.84;;;11.16;58.52
78383;BME280;67668;52.294;4.692;2023-05-18T02:07:27;103006.22;;;11.15;58.65
78383;BME280;67668;52.294;4.692;2023-05-18T02:09:53;103006.31;;;11.13;58.63
78383;BME280;67668;52.294;4.692;2023-05-18T02:12:18;103005.47;;;11.13;58.70
78383;BME280;67668;52.294;4.692;2023-05-18T02:14:44;103004.69;;;11.11;58.70
78383;BME280;67668;52.294;4.692;2023-05-18T02:17:09;103009.25;;;11.09;58.61
78383;BME280;67668;52.294;4.692;2023-05-18T02:19:36;103004.88;;;11.08;58.62
78383;BME280;67668;52.294;4.692;2023-05-18T02:22:03;103003.19;;;11.07;58.51
78383;BME280;67668;52.294;4.692;2023-05-18T02:24:31;103006.84;;;11.04;58.56
78383;BME280;67668;52.294;4.692;2023-05-18T02:26:57;103004.31;;;11.03;58.45
78383;BME280;67668;52.294;4.692;2023-05-18T02:29:23;103002.59;;;11.02;58.57
78383;BME280;67668;52.294;4.692;2023-05-18T02:31:49;103000.88;;;11.01;58.59
78383;BME280;67668;52.294;4.692;2023-05-18T02:34:14;103000.13;;;10.99;58.54
78383;BME280;67668;52.294;4.692;2023-05-18T02:36:41;103001.06;;;10.98;58.49
78383;BME280;67668;52.294;4.692;2023-05-18T02:39:08;103005.63;;;10.96;58.61
78383;BME280;67668;52.294;4.692;2023-05-18T02:41:36;103011.84;;;10.95;58.31
78383;BME280;67668;52.294;4.692;2023-05-18T02:44:02;103002.28;;;10.92;58.63
78383;BME280;67668;52.294;4.692;2023-05-18T02:46:28;103000.59;;;10.91;58.51
78383;BME280;67668;52.294;4.692;2023-05-18T02:48:53;102998.97;;;10.88;58.64
78383;BME280;67668;52.294;4.692;2023-05-18T02:51:19;102994.72;;;10.86;58.92
78383;BME280;67668;52.294;4.692;2023-05-18T02:53:46;103002.66;;;10.86;58.61
78383;BME280;67668;52.294;4.692;2023-05-18T02:56:11;103001.06;;;10.83;59.20
78383;BME280;67668;52.294;4.692;2023-05-18T02:58:37;103002.91;;;10.81;58.74
78383;BME280;67668;52.294;4.692;2023-05-18T03:01:03;102995.91;;;10.80;58.94
78383;BME280;67668;52.294;4.692;2023-05-18T03:03:32;103003.97;;;10.79;58.79
78383;BME280;67668;52.294;4.692;2023-05-18T03:06:00;102999.72;;;10.76;58.81
78383;BME280;67668;52.294;4.692;2023-05-18T03:08:27;103005.06;;;10.75;58.92
78383;BME280;67668;52.294;4.692;2023-05-18T03:10:53;103004.31;;;10.73;58.85
78383;BME280;67668;52.294;4.692;2023-05-18T03:13:19;103003.53;;;10.71;58.97
78383;BME280;67668;52.294;4.692;2023-05-18T03:15:44;103002.78;;;10.69;58.97
78383;BME280;67668;52.294;4.692;2023-05-18T03:18:10;103009.88;;;10.68;58.90
78383;BME280;67668;52.294;4.692;2023-05-18T03:20:36;103000.41;;;10.64;59.16
78383;BME280;67668;52.294;4.692;2023-05-18T03:23:03;103007.59;;;10.62;59.16
78383;BME280;67668;52.294;4.692;2023-05-18T03:25:28;103003.22;;;10.61;59.46
78383;BME280;67668;52.294;4.692;2023-05-18T03:27:54;103002.47;;;10.59;59.31
78383;BME280;67668;52.294;4.692;2023-05-18T03:30:20;103007.97;;;10.56;59.28
78383;BME280;67668;52.294;4.692;2023-05-18T03:32:46;103013.25;;;10.56;59.24
78383;BME280;67668;52.294;4.692;2023-05-18T03:35:12;103009.81;;;10.54;59.50
78383;BME280;67668;52.294;4.692;2023-05-18T03:37:37;103001.13;;;10.52;59.66
78383;BME280;67668;52.294;4.692;2023-05-18T03:40:13;102998.56;;;10.51;59.66
78383;BME280;67668;52.294;4.692;2023-05-18T03:42:41;103003.94;;;10.49;59.59
78383;BME280;67668;52.294;4.692;2023-05-18T03:45:08;103000.56;;;10.47;59.59
78383;BME280;67668;52.294;4.692;2023-05-18T03:47:34;103006.78;;;10.46;59.58
78383;BME280;67668;52.294;4.692;2023-05-18T03:50:01;103006.00;;;10.44;59.91
78383;BME280;67668;52.294;4.692;2023-05-18T03:52:26;102998.16;;;10.43;59.81
78383;BME280;67668;52.294;4.692;2023-05-18T03:54:54;103005.25;;;10.42;59.93
78383;BME280;67668;52.294;4.692;2023-05-18T03:57:20;103006.28;;;10.40;59.93
78383;BME280;67668;52.294;4.692;2023-05-18T03:59:45;103003.69;;;10.38;60.02
78383;BME280;67668;52.294;4.692;2023-05-18T04:02:11;103002.84;;;10.37;60.24
78383;BME280;67668;52.294;4.692;2023-05-18T04:04:37;103010.88;;;10.36;60.20
78383;BME280;67668;52.294;4.692;2023-05-18T04:07:07;103008.31;;;10.34;60.48
78383;BME280;67668;52.294;4.692;2023-05-18T04:09:32;103011.06;;;10.33;60.30
78383;BME280;67668;52.294;4.692;2023-05-18T04:11:58;103013.72;;;10.33;60.62
78383;BME280;67668;52.294;4.692;2023-05-18T04:14:24;103020.03;;;10.30;60.65
78383;BME280;67668;52.294;4.692;2023-05-18T04:16:52;103019.19;;;10.30;60.43
78383;BME280;67668;52.294;4.692;2023-05-18T04:19:18;103013.97;;;10.28;60.45
78383;BME280;67668;52.294;4.692;2023-05-18T04:21:44;103016.72;;;10.27;60.75
78383;BME280;67668;52.294;4.692;2023-05-18T04:24:11;103018.56;;;10.25;60.60
78383;BME280;67668;52.294;4.692;2023-05-18T04:26:38;103016.88;;;10.24;60.54
78383;BME280;67668;52.294;4.692;2023-05-18T04:29:04;103031.06;;;10.23;60.52
78383;BME280;67668;52.294;4.692;2023-05-18T04:31:32;103018.75;;;10.22;60.38
78383;BME280;67668;52.294;4.692;2023-05-18T04:33:59;103033.69;;;10.23;60.78
78383;BME280;67668;52.294;4.692;2023-05-18T04:36:25;103029.34;;;10.22;59.99
78383;BME280;67668;52.294;4.692;2023-05-18T04:38:55;103024.97;;;10.21;60.18
78383;BME280;67668;52.294;4.692;2023-05-18T04:41:23;103031.22;;;10.20;60.39
78383;BME280;67668;52.294;4.692;2023-05-18T04:43:49;103024.31;;;10.17;59.56
78383;BME280;67668;52.294;4.692;2023-05-18T04:46:15;103027.09;;;10.14;59.20
78383;BME280;67668;52.294;4.692;2023-05-18T04:48:41;103029.81;;;10.13;59.76
78383;BME280;67668;52.294;4.692;2023-05-18T04:51:06;103035.13;;;10.13;60.56
78383;BME280;67668;52.294;4.692;2023-05-18T04:53:32;103035.13;;;10.13;60.24
78383;BME280;67668;52.294;4.692;2023-05-18T04:55:57;103038.69;;;10.12;60.50
78383;BME280;67668;52.294;4.692;2023-05-18T04:58:26;103044.84;;;10.12;60.58
78383;BME280;67668;52.294;4.692;2023-05-18T05:00:58;103041.34;;;10.12;60.79
78383;BME280;67668;52.294;4.692;2023-05-18T05:03:23;103046.63;;;10.12;60.67
78383;BME280;67668;52.294;4.692;2023-05-18T05:05:48;103042.28;;;10.11;60.56
78383;BME280;67668;52.294;4.692;2023-05-18T05:08:15;103043.22;;;10.10;59.38
78383;BME280;67668;52.294;4.692;2023-05-18T05:10:40;103045.06;;;10.08;59.21
78383;BME280;67668;52.294;4.692;2023-05-18T05:13:06;103037.13;;;10.08;59.98
78383;BME280;67668;52.294;4.692;2023-05-18T05:15:34;103045.06;;;10.08;59.14
78383;BME280;67668;52.294;4.692;2023-05-18T05:18:00;103054.72;;;10.09;58.87
78383;BME280;67668;52.294;4.692;2023-05-18T05:20:25;103053.00;;;10.08;57.87
78383;BME280;67668;52.294;4.692;2023-05-18T05:22:50;103051.34;;;10.07;58.97
78383;BME280;67668;52.294;4.692;2023-05-18T05:25:16;103045.25;;;10.05;58.94
78383;BME280;67668;52.294;4.692;2023-05-18T05:27:41;103049.63;;;10.06;59.06
78383;BME280;67668;52.294;4.692;2023-05-18T05:30:07;103044.38;;;10.04;56.11
78383;BME280;67668;52.294;4.692;2023-05-18T05:32:32;103043.56;;;10.04;55.38
78383;BME280;67668;52.294;4.692;2023-05-18T05:35:00;103046.22;;;10.04;55.84
78383;BME280;67668;52.294;4.692;2023-05-18T05:37:25;103057.72;;;10.03;56.09
78383;BME280;67668;52.294;4.692;2023-05-18T05:39:50;103046.53;;;9.98;55.79
78383;BME280;67668;52.294;4.692;2023-05-18T05:42:16;103052.84;;;9.95;56.23
78383;BME280;67668;52.294;4.692;2023-05-18T05:44:41;103059.09;;;9.94;55.78
78383;BME280;67668;52.294;4.692;2023-05-18T05:47:06;103058.28;;;9.92;55.29
78383;BME280;67668;52.294;4.692;2023-05-18T05:49:33;103061.72;;;9.94;55.49
78383;BME280;67668;52.294;4.692;2023-05-18T05:51:58;103065.13;;;9.96;55.89
78383;BME280;67668;52.294;4.692;2023-05-18T05:54:23;103064.09;;;9.99;56.13
78383;BME280;67668;52.294;4.692;2023-05-18T05:56:49;103066.69;;;10.00;55.56
78383;BME280;67668;52.294;4.692;2023-05-18T05:59:14;103063.06;;;10.01;55.83
78383;BME280;67668;52.294;4.692;2023-05-18T06:01:40;103071.72;;;10.05;55.70
78383;BME280;67668;52.294;4.692;2023-05-18T06:04:06;103066.19;;;10.09;55.79
78383;BME280;67668;52.294;4.692;2023-05-18T06:06:36;103070.44;;;10.12;56.11
78383;BME280;67668;52.294;4.692;2023-05-18T06:09:02;103070.13;;;10.18;56.32
78383;BME280;67668;52.294;4.692;2023-05-18T06:11:29;103072.53;;;10.22;57.47
78383;BME280;67668;52.294;4.692;2023-05-18T06:13:54;103072.97;;;10.30;57.73
78383;BME280;67668;52.294;4.692;2023-05-18T06:16:19;103080.47;;;10.38;56.72
78383;BME280;67668;52.294;4.692;2023-05-18T06:18:46;103073.13;;;10.43;56.54
78383;BME280;67668;52.294;4.692;2023-05-18T06:21:13;103084.25;;;10.50;55.50
78383;BME280;67668;52.294;4.692;2023-05-18T06:23:38;103089.25;;;10.54;55.03
78383;BME280;67668;52.294;4.692;2023-05-18T06:26:04;103089.69;;;10.62;55.27
78383;BME280;67668;52.294;4.692;2023-05-18T06:28:29;103090.19;;;10.69;55.31
78383;BME280;67668;52.294;4.692;2023-05-18T06:30:55;103094.19;;;10.76;56.02
78383;BME280;67668;52.294;4.692;2023-05-18T06:33:20;103089.47;;;10.81;55.42
78383;BME280;67668;52.294;4.692;2023-05-18T06:35:47;103089.91;;;10.89;54.93
78383;BME280;67668;52.294;4.692;2023-05-18T06:38:13;103092.94;;;10.97;54.72
78383;BME280;67668;52.294;4.692;2023-05-18T06:40:38;103085.41;;;11.05;54.16
78383;BME280;67668;52.294;4.692;2023-05-18T06:43:04;103085.72;;;11.15;54.95
78383;BME280;67668;52.294;4.692;2023-05-18T06:45:29;103087.06;;;11.22;53.42
78383;BME280;67668;52.294;4.692;2023-05-18T06:47:55;103087.50;;;11.30;53.97
78383;BME280;67668;52.294;4.692;2023-05-18T06:50:20;103086.94;;;11.39;53.34
78383;BME280;67668;52.294;4.692;2023-05-18T06:52:46;103094.50;;;11.45;51.39
78383;BME280;67668;52.294;4.692;2023-05-18T06:55:13;103092.25;;;11.53;53.82
78383;BME280;67668;52.294;4.692;2023-05-18T06:57:40;103092.44;;;11.64;52.91
78383;BME280;67668;52.294;4.692;2023-05-18T07:00:06;103087.56;;;11.72;53.44
78383;BME280;67668;52.294;4.692;2023-05-18T07:02:34;103090.41;;;11.83;51.88
78383;BME280;67668;52.294;4.692;2023-05-18T07:05:01;103091.53;;;11.93;53.37
78383;BME280;67668;52.294;4.692;2023-05-18T07:07:29;103092.66;;;12.04;53.64
78383;BME280;67668;52.294;4.692;2023-05-18T07:09:55;103083.94;;;12.16;53.72
78383;BME280;67668;52.294;4.692;2023-05-18T07:12:21;103094.72;;;12.27;52.16
78383;BME280;67668;52.294;4.692;2023-05-18T07:14:48;103095.84;;;12.37;52.68
78383;BME280;67668;52.294;4.692;2023-05-18T07:17:13;103091.84;;;12.44;52.89
78383;BME280;67668;52.294;4.692;2023-05-18T07:19:39;103092.22;;;12.52;52.44
78383;BME280;67668;52.294;4.692;2023-05-18T07:22:04;103093.53;;;12.59;52.24
78383;BME280;67668;52.294;4.692;2023-05-18T07:24:31;103094.63;;;12.69;52.45
78383;BME280;67668;52.294;4.692;2023-05-18T07:26:58;103101.34;;;12.75;52.32
78383;BME280;67668;52.294;4.692;2023-05-18T07:29:23;103102.94;;;12.77;49.25
78383;BME280;67668;52.294;4.692;2023-05-18T07:31:49;103099.88;;;12.83;50.45
78383;BME280;67668;52.294;4.692;2023-05-18T07:34:15;103103.09;;;12.88;49.94
78383;BME280;67668;52.294;4.692;2023-05-18T07:36:40;103099.28;;;12.92;50.46
78383;BME280;67668;52.294;4.692;2023-05-18T07:39:06;103095.44;;;12.96;49.92
78383;BME280;67668;52.294;4.692;2023-05-18T07:41:32;103092.56;;;13.00;50.50
78383;BME280;67668;52.294;4.692;2023-05-18T07:43:58;103108.97;;;13.06;49.60
78383;BME280;67668;52.294;4.692;2023-05-18T07:46:23;103106.06;;;13.11;48.93
78383;BME280;67668;52.294;4.692;2023-05-18T07:48:49;103105.63;;;13.17;47.82
78383;BME280;67668;52.294;4.692;2023-05-18T07:51:14;103107.22;;;13.19;48.46
78383;BME280;67668;52.294;4.692;2023-05-18T07:53:39;103101.63;;;13.24;50.06
78383;BME280;67668;52.294;4.692;2023-05-18T07:56:07;103106.63;;;13.28;49.58
78383;BME280;67668;52.294;4.692;2023-05-18T07:58:36;103109.81;;;13.33;48.50
78383;BME280;67668;52.294;4.692;2023-05-18T08:01:02;103106.72;;;13.39;48.20
78383;BME280;67668;52.294;4.692;2023-05-18T08:03:28;103100.16;;;13.45;49.20
78383;BME280;67668;52.294;4.692;2023-05-18T08:05:53;103109.44;;;13.52;49.21
78383;BME280;67668;52.294;4.692;2023-05-18T08:08:18;103104.41;;;13.60;48.93
78383;BME280;67668;52.294;4.692;2023-05-18T08:10:44;103108.22;;;13.69;49.02
78383;BME280;67668;52.294;4.692;2023-05-18T08:13:10;103113.03;;;13.76;47.83
78383;BME280;67668;52.294;4.692;2023-05-18T08:15:35;103113.38;;;13.84;46.19
78383;BME280;67668;52.294;4.692;2023-05-18T08:18:01;103110.06;;;13.93;46.67
78383;BME280;67668;52.294;4.692;2023-05-18T08:20:26;103108.75;;;13.99;46.05
78383;BME280;67668;52.294;4.692;2023-05-18T08:22:55;103101.09;;;14.07;46.13
78383;BME280;67668;52.294;4.692;2023-05-18T08:25:21;103097.88;;;14.15;48.14
78383;BME280;67668;52.294;4.692;2023-05-18T08:27:48;103097.94;;;14.26;46.52
78383;BME280;67668;52.294;4.692;2023-05-18T08:30:14;103107.88;;;14.36;46.98
78383;BME280;67668;52.294;4.692;2023-05-18T08:32:40;103098.16;;;14.48;47.74
78383;BME280;67668;52.294;4.692;2023-05-18T08:35:06;103106.94;;;14.61;45.96
78383;BME280;67668;52.294;4.692;2023-05-18T08:37:33;103108.06;;;14.70;46.34
78383;BME280;67668;52.294;4.692;2023-05-18T08:39:58;103108.16;;;14.81;45.92
78383;BME280;67668;52.294;4.692;2023-05-18T08:42:29;103110.22;;;14.88;43.09
78383;BME280;67668;52.294;4.692;2023-05-18T08:45:06;103100.78;;;14.95;45.21
78383;BME280;67668;52.294;4.692;2023-05-18T08:47:36;103100.13;;;15.05;43.40
78383;BME280;67668;52.294;4.692;2023-05-18T08:50:02;103104.88;;;15.12;42.55
78383;BME280;67668;52.294;4.692;2023-05-18T08:52:34;103106.81;;;15.21;44.21
78383;BME280;67668;52.294;4.692;2023-05-18T08:55:04;103101.91;;;15.28;43.36
78383;BME280;67668;52.294;4.692;2023-05-18T08:57:33;103096.47;;;15.40;44.13
78383;BME280;67668;52.294;4.692;2023-05-18T08:59:59;103092.16;;;15.50;45.04
78383;BME280;67668;52.294;4.692;2023-05-18T09:02:26;103095.06;;;15.59;44.57
78383;BME280;67668;52.294;4.692;2023-05-18T09:04:52;103089.00;;;15.68;44.30
78383;BME280;67668;52.294;4.692;2023-05-18T09:07:19;103093.50;;;15.78;44.89
78383;BME280;67668;52.294;4.692;2023-05-18T09:09:46;103093.00;;;15.84;43.70
78383;BME280;67668;52.294;4.692;2023-05-18T09:12:12;103082.84;;;15.89;42.88
78383;BME280;67668;52.294;4.692;2023-05-18T09:14:39;103076.16;;;15.95;44.47
78383;BME280;67668;52.294;4.692;2023-05-18T09:17:05;103075.66;;;16.01;44.25
78383;BME280;67668;52.294;4.692;2023-05-18T09:19:31;103073.47;;;16.06;44.32
78383;BME280;67668;52.294;4.692;2023-05-18T09:21:56;103073.47;;;16.06;40.59
78383;BME280;67668;52.294;4.692;2023-05-18T09:24:23;103073.94;;;16.11;42.00
78383;BME280;67668;52.294;4.692;2023-05-18T09:26:48;103060.69;;;16.21;42.66
78383;BME280;67668;52.294;4.692;2023-05-18T09:29:17;103069.19;;;16.26;42.73
78383;BME280;67668;52.294;4.692;2023-05-18T09:31:44;103062.41;;;16.33;42.05
78383;BME280;67668;52.294;4.692;2023-05-18T09:34:14;103060.31;;;16.36;42.74
78383;BME280;67668;52.294;4.692;2023-05-18T09:36:39;103061.63;;;16.42;41.71
78383;BME280;67668;52.294;4.692;2023-05-18T09:39:08;103070.72;;;16.50;40.79
78383;BME280;67668;52.294;4.692;2023-05-18T09:41:37;103052.41;;;16.57;41.92
78383;BME280;67668;52.294;4.692;2023-05-18T09:44:05;103063.66;;;16.61;40.87
78383;BME280;67668;52.294;4.692;2023-05-18T09:46:37;103067.53;;;16.68;40.98
78383;BME280;67668;52.294;4.692;2023-05-18T09:49:04;103062.78;;;16.71;41.70
78383;BME280;67668;52.294;4.692;2023-05-18T09:51:29;103061.19;;;16.80;41.71
78383;BME280;67668;52.294;4.692;2023-05-18T09:53:57;103067.00;;;16.85;41.63
78383;BME280;67668;52.294;4.692;2023-05-18T09:56:23;103053.25;;;16.89;41.55
78383;BME280;67668;52.294;4.692;2023-05-18T09:58:49;103062.56;;;16.95;41.73
78383;BME280;67668;52.294;4.692;2023-05-18T10:01:15;103061.72;;;16.94;40.26
78383;BME280;67668;52.294;4.692;2023-05-18T10:03:40;103067.66;;;16.98;41.30
78383;BME280;67668;52.294;4.692;2023-05-18T10:06:09;103062.19;;;16.99;41.40
78383;BME280;67668;52.294;4.692;2023-05-18T10:08:37;103061.19;;;17.00;40.32
78383;BME280;67668;52.294;4.692;2023-05-18T10:11:03;103067.00;;;17.05;41.45
78383;BME280;67668;52.294;4.692;2023-05-18T10:13:30;103064.06;;;17.09;40.21
78383;BME280;67668;52.294;4.692;2023-05-18T10:15:58;103063.97;;;17.10;38.80
78383;BME280;67668;52.294;4.692;2023-05-18T10:18:26;103063.81;;;17.12;39.31
78383;BME280;67668;52.294;4.692;2023-05-18T10:20:56;103065.53;;;17.13;39.27
78383;BME280;67668;52.294;4.692;2023-05-18T10:23:25;103066.13;;;17.16;40.75
78383;BME280;67668;52.294;4.692;2023-05-18T10:25:51;103069.22;;;17.21;40.13
78383;BME280;67668;52.294;4.692;2023-05-18T10:28:19;103061.78;;;17.25;40.95
78383;BME280;67668;52.294;4.692;2023-05-18T10:30:51;103064.34;;;17.26;38.93
78383;BME280;67668;52.294;4.692;2023-05-18T10:33:18;103053.75;;;17.25;38.42
78383;BME280;67668;52.294;4.692;2023-05-18T10:35:44;103058.25;;;17.24;39.19
78383;BME280;67668;52.294;4.692;2023-05-18T10:38:17;103054.34;;;17.28;40.35
78383;BME280;67668;52.294;4.692;2023-05-18T10:40:46;103057.50;;;17.33;40.24
78383;BME280;67668;52.294;4.692;2023-05-18T10:43:12;103050.50;;;17.42;40.37
78383;BME280;67668;52.294;4.692;2023-05-18T10:45:38;103060.53;;;17.49;39.91
78383;BME280;67668;52.294;4.692;2023-05-18T10:48:08;103041.38;;;17.54;40.12
78383;BME280;67668;52.294;4.692;2023-05-18T10:50:34;103044.81;;;17.56;40.40
78383;BME280;67668;52.294;4.692;2023-05-18T10:53:02;103043.56;;;17.60;40.14
78383;BME280;67668;52.294;4.692;2023-05-18T10:55:27;103044.44;;;17.70;40.07
78383;BME280;67668;52.294;4.692;2023-05-18T10:57:58;103044.91;;;17.75;39.97
78383;BME280;67668;52.294;4.692;2023-05-18T11:00:26;103036.59;;;17.78;40.26
78383;BME280;67668;52.294;4.692;2023-05-18T11:02:52;103037.03;;;17.83;39.26
78383;BME280;67668;52.294;4.692;2023-05-18T11:05:23;103031.97;;;17.90;39.82
78383;BME280;67668;52.294;4.692;2023-05-18T11:07:49;103029.59;;;17.96;39.01
78383;BME280;67668;52.294;4.692;2023-05-18T11:10:14;103029.06;;;18.02;39.87
78383;BME280;67668;52.294;4.692;2023-05-18T11:12:41;103032.19;;;18.07;39.95
78383;BME280;67668;52.294;4.692;2023-05-18T11:15:07;103033.59;;;18.12;38.43
78383;BME280;67668;52.294;4.692;2023-05-18T11:17:33;103031.34;;;18.17;38.37
78383;BME280;67668;52.294;4.692;2023-05-18T11:22:49;103026.88;;;18.36;38.79
78383;BME280;67668;52.294;4.692;2023-05-18T11:30:49;103028.44;;;18.48;38.35
78383;BME280;67668;52.294;4.692;2023-05-18T11:33:26;103024.94;;;18.57;38.57
78383;BME280;67668;52.294;4.692;2023-05-18T11:36:04;103017.47;;;18.61;37.95
78383;BME280;67668;52.294;4.692;2023-05-18T11:39:05;103027.22;;;18.72;37.96
78383;BME280;67668;52.294;4.692;2023-05-18T11:41:37;103014.22;;;18.77;36.46
78383;BME280;67668;52.294;4.692;2023-05-18T11:44:16;103010.13;;;18.73;36.02
78383;BME280;67668;52.294;4.692;2023-05-18T11:47:09;103009.41;;;18.80;36.14
78383;BME280;67668;52.294;4.692;2023-05-18T11:49:44;103002.50;;;18.87;37.59
78383;BME280;67668;52.294;4.692;2023-05-18T11:52:22;102998.81;;;18.98;37.58
78383;BME280;67668;52.294;4.692;2023-05-18T11:54:55;102992.84;;;19.04;37.65
78383;BME280;67668;52.294;4.692;2023-05-18T11:59:59;102993.81;;;19.13;36.32
78383;BME280;67668;52.294;4.692;2023-05-18T12:02:33;102996.06;;;19.17;36.75
78383;BME280;67668;52.294;4.692;2023-05-18T12:04:59;102991.56;;;19.18;36.53
78383;BME280;67668;52.294;4.692;2023-05-18T12:07:27;102990.56;;;19.19;35.33
78383;BME280;67668;52.294;4.692;2023-05-18T12:09:57;102982.63;;;19.27;36.82
78383;BME280;67668;52.294;4.692;2023-05-18T12:12:23;102975.69;;;19.34;36.19
78383;BME280;67668;52.294;4.692;2023-05-18T12:14:57;102985.81;;;19.40;35.99
78383;BME280;67668;52.294;4.692;2023-05-18T12:17:23;102984.56;;;19.44;36.40
78383;BME280;67668;52.294;4.692;2023-05-18T12:19:49;102983.28;;;19.48;36.36
78383;BME280;67668;52.294;4.692;2023-05-18T12:22:14;102987.66;;;19.49;34.14
78383;BME280;67668;52.294;4.692;2023-05-18T12:24:41;102982.44;;;19.47;34.30
78383;BME280;67668;52.294;4.692;2023-05-18T12:27:09;102971.69;;;19.47;34.13
78383;BME280;67668;52.294;4.692;2023-05-18T12:29:39;102976.38;;;19.45;35.41
78383;BME280;67668;52.294;4.692;2023-05-18T12:32:07;102977.94;;;19.38;34.36
78383;BME280;67668;52.294;4.692;2023-05-18T12:34:32;102982.75;;;19.35;35.16
78383;BME280;67668;52.294;4.692;2023-05-18T12:36:58;102978.50;;;19.32;33.98
78383;BME280;67668;52.294;4.692;2023-05-18T12:39:24;102970.91;;;19.28;35.47
78383;BME280;67668;52.294;4.692;2023-05-18T12:41:50;102965.38;;;19.29;35.97
78383;BME280;67668;52.294;4.692;2023-05-18T12:44:15;102971.88;;;19.27;34.67
78383;BME280;67668;52.294;4.692;2023-05-18T12:46:41;102968.50;;;19.25;35.07
78383;BME280;67668;52.294;4.692;2023-05-18T12:49:07;102970.91;;;19.28;35.55
78383;BME280;67668;52.294;4.692;2023-05-18T12:51:34;102971.88;;;19.27;36.13
78383;BME280;67668;52.294;4.692;2023-05-18T12:54:02;102969.19;;;19.27;36.03
78383;BME280;67668;52.294;4.692;2023-05-18T12:56:56;102972.03;;;19.25;36.83
78383;BME280;67668;52.294;4.692;2023-05-18T12:59:27;102966.50;;;19.27;34.45
78383;BME280;67668;52.294;4.692;2023-05-18T13:01:54;102964.81;;;19.26;36.18
78383;BME280;67668;52.294;4.692;2023-05-18T13:04:19;102962.56;;;19.21;36.35
78383;BME280;67668;52.294;4.692;2023-05-18T13:06:45;102965.09;;;19.23;36.05
78383;BME280;67668;52.294;4.692;2023-05-18T13:09:11;102957.91;;;19.23;36.58